Time;durP1;ratioP1;P1;durP2;ratioP2;P2;SDS_P1;SDS_P2;PMS_P1;PMS_P2;Temp;Humidity;BMP_temperature;BMP_pressure;BME280_temperature;BME280_humidity;BME280_pressure;Samples;Min_cycle;Max_cycle;Signal;HPM_P1;HPM_P2
2021/05/15 00:00:37;;;;;;;21.35;12.43;;;7.80;99.90;;;;;;6192498;23;20471;-93
2021/05/15 00:03:03;;;;;;;20.38;11.65;;;7.80;99.90;;;;;;6191209;23;20091;-93
2021/05/15 00:05:29;;;;;;;19.80;11.80;;;7.80;99.90;;;;;;6192093;23;20012;-91
2021/05/15 00:07:55;;;;;;;22.42;13.07;;;7.70;99.90;;;;;;6193604;23;20005;-93
2021/05/15 00:10:21;;;;;;;27.10;12.25;;;7.70;99.90;;;;;;6193307;23;20027;-92
2021/05/15 00:12:47;;;;;;;27.08;12.55;;;7.70;99.90;;;;;;6193242;23;20495;-92
2021/05/15 00:15:14;;;;;;;23.25;12.23;;;7.60;99.90;;;;;;6198180;23;19998;-92
2021/05/15 00:17:40;;;;;;;21.95;12.23;;;7.60;99.90;;;;;;6195483;23;20013;-92
2021/05/15 00:20:13;;;;;;;21.98;12.32;;;7.60;99.90;;;;;;6195604;23;20093;-93
2021/05/15 00:22:40;;;;;;;22.83;11.98;;;7.60;99.90;;;;;;6191010;23;20099;-92
2021/05/15 00:25:09;;;;;;;22.52;12.05;;;7.60;99.90;;;;;;6193795;23;20032;-92
2021/05/15 00:27:36;;;;;;;25.38;13.43;;;7.50;99.90;;;;;;6190915;23;20059;-92
2021/05/15 00:30:13;;;;;;;23.58;13.02;;;7.60;99.90;;;;;;6193257;23;20001;-91
2021/05/15 00:32:39;;;;;;;23.42;12.35;;;7.60;99.90;;;;;;6191571;23;20005;-92
2021/05/15 00:35:06;;;;;;;22.70;13.00;;;7.60;99.90;;;;;;6190881;23;20005;-91
2021/05/15 00:37:32;;;;;;;22.25;13.43;;;7.60;99.90;;;;;;6189538;23;20028;-92
2021/05/15 00:39:58;;;;;;;24.77;13.13;;;7.60;99.90;;;;;;6191373;23;20577;-91
2021/05/15 00:42:24;;;;;;;25.20;13.35;;;7.50;99.90;;;;;;6188421;23;20005;-91
2021/05/15 00:44:50;;;;;;;21.08;12.43;;;7.50;99.90;;;;;;6189810;23;20055;-90
2021/05/15 00:47:18;;;;;;;21.48;11.88;;;7.50;99.90;;;;;;6191759;23;20348;-90
2021/05/15 00:49:46;;;;;;;21.58;12.73;;;7.50;99.90;;;;;;6191241;23;20005;-89
2021/05/15 00:52:12;;;;;;;21.20;12.35;;;7.50;99.90;;;;;;6192277;23;20044;-91
2021/05/15 00:54:40;;;;;;;22.45;12.13;;;7.50;99.90;;;;;;6192453;23;20490;-90
2021/05/15 00:57:08;;;;;;;19.38;10.95;;;7.40;99.90;;;;;;6191829;23;20027;-91
2021/05/15 00:59:35;;;;;;;20.25;11.68;;;7.40;99.90;;;;;;6192684;23;20039;-91
2021/05/15 01:02:02;;;;;;;23.45;11.55;;;7.40;99.90;;;;;;6191376;23;20001;-91
2021/05/15 01:04:28;;;;;;;21.83;12.18;;;7.30;99.90;;;;;;6191811;23;20056;-90
2021/05/15 01:06:54;;;;;;;27.67;13.73;;;7.30;99.90;;;;;;6191863;23;20001;-90
2021/05/15 01:09:20;;;;;;;22.20;12.88;;;7.30;99.90;;;;;;6196906;23;20023;-92
2021/05/15 01:11:48;;;;;;;22.00;12.50;;;7.30;99.90;;;;;;6200663;23;20009;-91
2021/05/15 01:14:16;;;;;;;20.15;11.88;;;7.30;99.90;;;;;;6201560;23;20009;-91
2021/05/15 01:16:42;;;;;;;22.77;12.35;;;7.30;99.90;;;;;;6199948;23;20040;-91
2021/05/15 01:19:08;;;;;;;29.10;12.98;;;7.30;99.90;;;;;;6196915;23;20389;-91
2021/05/15 01:21:34;;;;;;;21.35;12.20;;;7.30;99.90;;;;;;6197905;23;20002;-90
2021/05/15 01:24:03;;;;;;;22.75;12.07;;;7.30;99.90;;;;;;6199077;23;20076;-91
2021/05/15 01:26:32;;;;;;;22.73;12.88;;;7.30;99.90;;;;;;6196688;23;20004;-91
2021/05/15 01:29:03;;;;;;;18.83;11.18;;;7.20;99.90;;;;;;6195765;23;20328;-89
2021/05/15 01:31:30;;;;;;;20.83;12.02;;;7.20;99.90;;;;;;6193088;23;20005;-90
2021/05/15 01:33:56;;;;;;;22.00;12.63;;;7.30;99.90;;;;;;6188850;23;20008;-91
2021/05/15 01:36:24;;;;;;;24.20;12.27;;;7.20;99.90;;;;;;6188318;23;20067;-91
2021/05/15 01:38:50;;;;;;;26.52;13.00;;;7.20;99.90;;;;;;6163002;23;20028;-91
2021/05/15 01:41:18;;;;;;;23.65;13.57;;;7.20;99.90;;;;;;6188445;23;20008;-91
2021/05/15 01:43:44;;;;;;;22.48;13.13;;;7.20;99.90;;;;;;6187931;23;20005;-91
2021/05/15 01:46:11;;;;;;;27.33;12.18;;;7.20;99.90;;;;;;6189792;23;20009;-92
2021/05/15 01:48:38;;;;;;;22.23;11.88;;;7.20;99.90;;;;;;6193654;23;20417;-91
2021/05/15 01:51:08;;;;;;;23.20;13.65;;;7.20;99.90;;;;;;6194950;23;20008;-91
2021/05/15 01:53:41;;;;;;;22.60;12.45;;;7.20;99.90;;;;;;6195191;23;20005;-90
2021/05/15 01:56:11;;;;;;;26.58;13.85;;;7.10;99.90;;;;;;6194935;23;20001;-90
2021/05/15 01:58:39;;;;;;;25.27;13.18;;;7.10;99.90;;;;;;6195883;23;20024;-89
2021/05/15 02:01:06;;;;;;;23.70;13.27;;;7.10;99.90;;;;;;6195070;23;20013;-91
2021/05/15 02:03:33;;;;;;;28.33;13.60;;;7.00;99.90;;;;;;6193315;23;20013;-91
2021/05/15 02:05:59;;;;;;;28.92;13.93;;;7.00;99.90;;;;;;6187456;23;20004;-91
2021/05/15 02:08:25;;;;;;;26.92;14.50;;;7.00;99.90;;;;;;6188699;23;20008;-91
2021/05/15 02:10:52;;;;;;;23.48;13.25;;;6.90;99.90;;;;;;6187156;23;20441;-91
2021/05/15 02:13:18;;;;;;;27.65;12.75;;;6.90;99.90;;;;;;6188797;23;20008;-92
2021/05/15 02:15:45;;;;;;;21.38;12.10;;;6.80;99.90;;;;;;6187624;23;20110;-91
2021/05/15 02:18:12;;;;;;;22.15;12.43;;;6.80;99.90;;;;;;6188785;23;20021;-90
2021/05/15 02:20:38;;;;;;;21.42;11.35;;;6.70;99.90;;;;;;6194157;23;20001;-91
2021/05/15 02:23:05;;;;;;;21.27;11.05;;;6.70;99.90;;;;;;6194667;23;20005;-91
2021/05/15 02:25:32;;;;;;;22.00;11.68;;;6.70;99.90;;;;;;6195018;23;20036;-91
2021/05/15 02:27:58;;;;;;;24.35;13.05;;;6.70;99.90;;;;;;6194348;23;20005;-90
2021/05/15 02:30:26;;;;;;;29.15;15.15;;;6.70;99.90;;;;;;6169369;23;20012;-90
2021/05/15 02:32:51;;;;;;;27.35;14.23;;;6.70;99.90;;;;;;6195320;23;20091;-91
2021/05/15 02:35:17;;;;;;;32.15;15.90;;;6.70;99.90;;;;;;6188004;23;20008;-91
2021/05/15 02:37:45;;;;;;;33.60;16.85;;;6.70;99.90;;;;;;6187840;23;20017;-92
2021/05/15 02:40:11;;;;;;;35.70;16.95;;;6.70;99.90;;;;;;6187911;23;20476;-92
2021/05/15 02:42:37;;;;;;;38.22;17.25;;;6.70;99.90;;;;;;6188376;23;20033;-90
2021/05/15 02:45:05;;;;;;;31.70;15.65;;;6.70;99.90;;;;;;6187776;23;20024;-92
2021/05/15 02:47:31;;;;;;;31.88;16.52;;;6.70;99.90;;;;;;6187516;23;20089;-90
2021/05/15 02:49:56;;;;;;;33.65;16.67;;;6.60;99.90;;;;;;6194863;23;20436;-90
2021/05/15 02:52:22;;;;;;;35.08;16.83;;;6.60;99.90;;;;;;6199057;23;20072;-91
2021/05/15 02:54:48;;;;;;;29.65;15.50;;;6.60;99.90;;;;;;6207521;23;19985;-91
2021/05/15 02:57:14;;;;;;;29.50;15.82;;;6.60;99.90;;;;;;6207840;23;20036;-90
2021/05/15 02:59:40;;;;;;;28.15;15.45;;;6.60;99.90;;;;;;6205031;23;20008;-91
2021/05/15 03:02:06;;;;;;;29.15;15.35;;;6.60;99.90;;;;;;6199716;23;20005;-90
2021/05/15 03:04:32;;;;;;;30.17;15.70;;;6.50;99.90;;;;;;6199155;23;20130;-92
2021/05/15 03:06:57;;;;;;;28.10;15.15;;;6.50;99.90;;;;;;6198717;23;20428;-91
2021/05/15 03:09:24;;;;;;;31.92;15.07;;;6.50;99.90;;;;;;6197343;23;20009;-91
2021/05/15 03:11:51;;;;;;;28.77;15.23;;;6.50;99.90;;;;;;6198897;23;20012;-90
2021/05/15 03:14:17;;;;;;;26.88;14.73;;;6.50;99.90;;;;;;6197805;23;20001;-90
2021/05/15 03:16:46;;;;;;;27.25;15.43;;;6.50;99.90;;;;;;6196617;23;20016;-90
2021/05/15 03:19:12;;;;;;;27.33;13.82;;;6.40;99.90;;;;;;6196323;23;20009;-91
2021/05/15 03:21:39;;;;;;;24.70;14.25;;;6.40;99.90;;;;;;6195175;23;20005;-92
2021/05/15 03:24:07;;;;;;;25.70;14.30;;;6.40;99.90;;;;;;6169850;23;20009;-91
2021/05/15 03:26:33;;;;;;;25.35;12.57;;;6.40;99.90;;;;;;6195475;23;20009;-90
2021/05/15 03:28:59;;;;;;;25.65;14.90;;;6.40;99.90;;;;;;6195260;23;20012;-92
2021/05/15 03:31:24;;;;;;;31.13;15.25;;;6.40;99.90;;;;;;6195809;23;20009;-92
2021/05/15 03:33:50;;;;;;;32.28;15.60;;;6.40;99.90;;;;;;6200709;23;20005;-92
2021/05/15 03:36:16;;;;;;;32.67;16.83;;;6.40;99.90;;;;;;6198830;23;20016;-92
2021/05/15 03:38:42;;;;;;;30.70;16.58;;;6.40;99.90;;;;;;6195090;23;20081;-91
2021/05/15 03:41:08;;;;;;;32.38;15.90;;;6.50;99.90;;;;;;6195925;23;20001;-91
2021/05/15 03:43:34;;;;;;;35.78;17.02;;;6.50;99.90;;;;;;6194044;23;20391;-91
2021/05/15 03:46:00;;;;;;;33.50;16.58;;;6.50;99.90;;;;;;6194677;23;20464;-91
2021/05/15 03:48:26;;;;;;;33.83;16.23;;;6.60;99.90;;;;;;6194500;23;20009;-91
2021/05/15 03:50:55;;;;;;;27.25;13.35;;;6.60;99.90;;;;;;6194934;23;20040;-91
2021/05/15 03:53:21;;;;;;;22.60;12.02;;;6.60;99.90;;;;;;6194881;23;20001;-92
2021/05/15 03:55:47;;;;;;;22.73;12.18;;;6.60;99.90;;;;;;6194953;23;20099;-92
2021/05/15 03:58:15;;;;;;;21.90;12.02;;;6.50;99.90;;;;;;6193906;23;20013;-93
2021/05/15 04:00:41;;;;;;;22.88;13.13;;;6.50;99.90;;;;;;6191011;23;20001;-93
2021/05/15 04:03:07;;;;;;;24.88;12.48;;;6.50;99.90;;;;;;6191626;23;20001;-92
2021/05/15 04:05:33;;;;;;;24.30;13.80;;;6.50;99.90;;;;;;6191745;23;20008;-93
2021/05/15 04:08:00;;;;;;;27.38;14.70;;;6.60;99.90;;;;;;6193720;23;20092;-92
2021/05/15 04:10:27;;;;;;;25.75;12.07;;;6.60;99.90;;;;;;6194721;23;20503;-93
2021/05/15 04:15:49;;;;;;;22.45;12.32;;;6.60;99.90;;;;;;6196663;23;20005;-93
2021/05/15 04:18:15;;;;;;;22.15;12.57;;;6.60;99.90;;;;;;6174816;23;20021;-93
2021/05/15 04:20:43;;;;;;;22.55;12.63;;;6.60;99.90;;;;;;6193019;23;20373;-92
2021/05/15 04:23:09;;;;;;;22.33;12.38;;;6.50;99.90;;;;;;6194913;23;20005;-92
2021/05/15 04:25:35;;;;;;;25.92;13.75;;;6.60;99.90;;;;;;6194216;23;20008;-92
2021/05/15 04:28:03;;;;;;;24.38;13.00;;;6.60;99.90;;;;;;6194850;23;20063;-92
2021/05/15 04:33:23;;;;;;;24.65;13.90;;;6.70;99.90;;;;;;6170698;23;20001;-93
2021/05/15 04:35:55;;;;;;;33.38;16.98;;;6.70;99.90;;;;;;6196503;23;20036;-93
2021/05/15 04:38:21;;;;;;;30.95;16.92;;;6.70;99.90;;;;;;6196409;23;20024;-93
2021/05/15 04:40:49;;;;;;;26.75;14.43;;;6.80;99.90;;;;;;6195942;23;20012;-92
2021/05/15 04:43:15;;;;;;;28.38;14.48;;;6.90;99.90;;;;;;6195260;23;20121;-93
2021/05/15 04:45:45;;;;;;;28.27;15.23;;;6.90;99.90;;;;;;6195539;23;20009;-91
2021/05/15 04:48:12;;;;;;;28.67;14.70;;;6.90;99.90;;;;;;6194536;23;20440;-93
2021/05/15 04:50:38;;;;;;;30.38;15.80;;;6.90;99.90;;;;;;6192818;23;20009;-93
2021/05/15 04:53:04;;;;;;;28.08;15.07;;;6.90;99.90;;;;;;6194317;23;20006;-92
2021/05/15 04:55:30;;;;;;;27.55;14.15;;;7.00;99.90;;;;;;6194362;23;20005;-94
2021/05/15 04:57:58;;;;;;;29.25;14.48;;;7.00;99.90;;;;;;6194827;23;20020;-93
2021/05/15 05:00:23;;;;;;;26.60;13.98;;;6.90;99.90;;;;;;6197204;23;19997;-92
2021/05/15 05:02:51;;;;;;;26.42;14.75;;;6.90;99.90;;;;;;6202931;23;20025;-92
2021/05/15 05:05:17;;;;;;;31.65;15.95;;;7.00;99.90;;;;;;6203872;23;20012;-90
2021/05/15 05:07:45;;;;;;;32.20;16.25;;;7.00;99.90;;;;;;6204853;23;20001;-92
2021/05/15 05:10:12;;;;;;;31.67;16.20;;;7.00;99.90;;;;;;6202314;23;20012;-94
2021/05/15 05:12:38;;;;;;;31.42;15.60;;;7.10;99.90;;;;;;6202042;23;20009;-92
2021/05/15 05:15:05;;;;;;;37.22;18.17;;;7.10;99.90;;;;;;6202877;23;20005;-92
2021/05/15 05:17:32;;;;;;;35.97;16.73;;;7.10;99.90;;;;;;6204412;23;20013;-92
2021/05/15 05:19:58;;;;;;;37.63;18.65;;;7.10;99.90;;;;;;6203578;23;20005;-92
2021/05/15 05:22:24;;;;;;;37.17;18.08;;;7.20;99.90;;;;;;6202503;23;20028;-91
2021/05/15 05:24:51;;;;;;;42.70;19.73;;;7.20;99.90;;;;;;6203707;23;20009;-92
2021/05/15 05:27:22;;;;;;;38.83;17.63;;;7.20;99.90;;;;;;6202564;23;20096;-91
2021/05/15 05:29:48;;;;;;;41.20;19.95;;;7.20;99.90;;;;;;6177906;23;20009;-91
2021/05/15 05:32:14;;;;;;;47.47;21.17;;;7.30;99.90;;;;;;6202183;23;20002;-91
2021/05/15 05:34:40;;;;;;;49.67;22.13;;;7.30;99.90;;;;;;6200887;23;20345;-91
2021/05/15 05:37:06;;;;;;;38.15;19.17;;;7.30;99.90;;;;;;6206154;23;20064;-91
2021/05/15 05:39:32;;;;;;;40.33;19.58;;;7.40;99.90;;;;;;6205328;23;20031;-92
2021/05/15 05:41:59;;;;;;;37.72;18.08;;;7.40;99.90;;;;;;6203706;23;20001;-92
2021/05/15 05:44:25;;;;;;;37.88;19.17;;;7.40;99.90;;;;;;6202679;23;20001;-92
2021/05/15 05:46:51;;;;;;;41.88;19.08;;;7.40;99.90;;;;;;6202153;23;20001;-92
2021/05/15 05:49:16;;;;;;;44.47;21.38;;;7.40;99.90;;;;;;6203771;23;20089;-92
2021/05/15 05:51:43;;;;;;;41.05;19.95;;;7.40;99.90;;;;;;6202021;23;20001;-92
2021/05/15 05:54:09;;;;;;;47.20;21.83;;;7.40;99.90;;;;;;6199895;23;20005;-92
2021/05/15 05:56:36;;;;;;;52.58;23.95;;;7.50;99.90;;;;;;6202365;23;20013;-91
2021/05/15 05:59:02;;;;;;;44.10;19.88;;;7.50;99.90;;;;;;6201585;23;20009;-91
2021/05/15 06:01:28;;;;;;;40.33;19.70;;;7.50;99.90;;;;;;6202576;23;20008;-92
2021/05/15 06:03:55;;;;;;;44.70;20.10;;;7.50;99.90;;;;;;6203180;23;20005;-93
2021/05/15 06:06:21;;;;;;;44.40;21.33;;;7.50;99.90;;;;;;6203006;23;20060;-93
2021/05/15 06:08:48;;;;;;;41.13;20.92;;;7.50;99.90;;;;;;6205149;23;20016;-93
2021/05/15 06:11:14;;;;;;;45.40;22.38;;;7.60;99.90;;;;;;6202618;23;20040;-92
2021/05/15 06:13:42;;;;;;;45.28;21.73;;;7.60;99.90;;;;;;6202098;23;20013;-93
2021/05/15 06:16:11;;;;;;;47.58;21.65;;;7.60;99.90;;;;;;6203287;23;20005;-91
2021/05/15 06:18:37;;;;;;;41.13;19.83;;;7.60;99.90;;;;;;6202605;23;20055;-91
2021/05/15 06:21:05;;;;;;;43.50;21.42;;;7.70;99.90;;;;;;6201376;23;20009;-91
2021/05/15 06:23:33;;;;;;;46.45;20.05;;;7.70;99.90;;;;;;6200814;23;20012;-91
2021/05/15 06:26:00;;;;;;;48.58;22.00;;;7.70;99.90;;;;;;6201828;23;20016;-92
2021/05/15 06:28:25;;;;;;;48.38;21.73;;;7.70;99.90;;;;;;6201621;23;20001;-91
2021/05/15 06:30:51;;;;;;;31.33;15.77;;;7.80;99.90;;;;;;6201660;23;20091;-92
2021/05/15 06:33:18;;;;;;;42.50;18.17;;;7.80;99.90;;;;;;6201177;23;20001;-95
2021/05/15 06:35:44;;;;;;;41.40;20.60;;;7.90;99.90;;;;;;6177830;23;20009;-92
2021/05/15 06:38:11;;;;;;;40.67;21.05;;;8.00;99.90;;;;;;6206168;23;20009;-91
2021/05/15 06:40:37;;;;;;;43.47;21.88;;;8.00;99.90;;;;;;6207709;23;20065;-92
2021/05/15 06:43:03;;;;;;;46.58;23.25;;;8.20;99.90;;;;;;6208863;23;20017;-94
2021/05/15 06:45:29;;;;;;;43.75;22.00;;;8.30;99.90;;;;;;6211668;23;20060;-93
2021/05/15 06:47:57;;;;;;;45.83;22.98;;;8.30;99.90;;;;;;6209525;23;20004;-93
2021/05/15 06:50:24;;;;;;;41.42;20.17;;;8.40;99.90;;;;;;6178703;23;20019;-92
2021/05/15 06:52:50;;;;;;;41.70;20.50;;;8.50;99.90;;;;;;6201379;23;20001;-92
2021/05/15 06:55:17;;;;;;;42.83;20.52;;;8.70;99.90;;;;;;6203250;23;20012;-91
2021/05/15 06:57:44;;;;;;;35.80;18.70;;;8.80;99.90;;;;;;6199146;23;20028;-93
2021/05/15 07:00:10;;;;;;;35.03;18.98;;;9.00;99.90;;;;;;6199533;23;20008;-93
2021/05/15 07:02:36;;;;;;;32.55;18.17;;;9.10;99.90;;;;;;6195734;23;20017;-91
2021/05/15 07:05:04;;;;;;;36.90;17.20;;;9.20;99.90;;;;;;6198279;23;20028;-93
2021/05/15 07:07:30;;;;;;;29.30;16.38;;;9.30;99.90;;;;;;6203337;23;20092;-93
2021/05/15 07:09:56;;;;;;;38.28;18.90;;;9.50;99.90;;;;;;6199414;23;20009;-91
2021/05/15 07:12:22;;;;;;;31.80;17.75;;;9.60;99.90;;;;;;6176771;23;20021;-93
2021/05/15 07:14:59;;;;;;;31.75;17.20;;;9.70;99.90;;;;;;6200300;23;20020;-91
2021/05/15 07:17:26;;;;;;;32.97;16.83;;;9.70;99.90;;;;;;6199427;23;20013;-92
2021/05/15 07:19:54;;;;;;;34.40;17.33;;;9.70;99.90;;;;;;6199436;23;20090;-91
2021/05/15 07:22:25;;;;;;;35.25;18.65;;;9.70;99.90;;;;;;6199517;23;20009;-91
2021/05/15 07:24:53;;;;;;;30.35;16.33;;;9.70;99.90;;;;;;6200377;23;19981;-91
2021/05/15 07:27:20;;;;;;;31.13;16.35;;;9.70;99.90;;;;;;6200350;23;20519;-93
2021/05/15 07:29:48;;;;;;;28.98;16.60;;;9.70;99.90;;;;;;6206423;23;20024;-90
2021/05/15 07:32:14;;;;;;;32.03;17.30;;;9.80;99.90;;;;;;6200133;23;20013;-91
2021/05/15 07:34:40;;;;;;;32.22;16.98;;;9.80;99.90;;;;;;6199758;23;20211;-90
2021/05/15 07:37:06;;;;;;;33.15;18.40;;;9.80;99.90;;;;;;6199130;23;20021;-92
2021/05/15 07:39:32;;;;;;;36.53;17.60;;;9.90;99.90;;;;;;6200138;23;20009;-90
2021/05/15 07:41:58;;;;;;;36.03;19.38;;;10.00;99.90;;;;;;6202199;23;19997;-92
2021/05/15 07:44:24;;;;;;;37.58;20.33;;;10.00;99.90;;;;;;6198660;23;20032;-93
2021/05/15 07:46:50;;;;;;;38.47;19.60;;;10.10;99.90;;;;;;6203112;23;20024;-91
2021/05/15 07:49:17;;;;;;;31.63;17.88;;;10.10;99.90;;;;;;6200312;23;20064;-93
2021/05/15 07:51:46;;;;;;;31.25;16.60;;;10.10;99.90;;;;;;6201054;23;20016;-92
2021/05/15 07:54:13;;;;;;;36.17;18.73;;;10.10;99.90;;;;;;6200554;23;20005;-93
2021/05/15 07:56:39;;;;;;;37.17;19.60;;;10.20;99.90;;;;;;6200132;23;20096;-92
2021/05/15 07:59:05;;;;;;;37.13;19.90;;;10.20;99.90;;;;;;6200871;23;20005;-92
2021/05/15 08:01:32;;;;;;;38.33;21.27;;;10.20;99.90;;;;;;6200669;23;19990;-92
2021/05/15 08:03:57;;;;;;;35.38;20.30;;;10.20;99.90;;;;;;6201556;23;20009;-92
2021/05/15 08:06:25;;;;;;;34.88;18.55;;;10.20;99.90;;;;;;6200718;23;20005;-93
2021/05/15 08:08:51;;;;;;;35.33;20.98;;;10.20;99.90;;;;;;6201458;23;20008;-92
2021/05/15 08:11:20;;;;;;;33.05;20.08;;;10.20;99.90;;;;;;6200157;23;20017;-93
2021/05/15 08:13:46;;;;;;;34.55;19.60;;;10.20;99.90;;;;;;6199646;23;20009;-92
2021/05/15 08:16:13;;;;;;;45.08;21.52;;;10.20;99.90;;;;;;6200174;23;19993;-91
2021/05/15 08:18:41;;;;;;;45.97;22.73;;;10.10;99.90;;;;;;6175021;23;20021;-92
2021/05/15 08:21:08;;;;;;;43.88;24.42;;;10.10;99.90;;;;;;6200390;23;20009;-92
2021/05/15 08:23:35;;;;;;;42.60;24.13;;;10.00;99.90;;;;;;6175474;23;20090;-94
2021/05/15 08:26:10;;;;;;;41.10;21.75;;;10.00;99.90;;;;;;6199473;23;20460;-94
2021/05/15 08:28:46;;;;;;;47.13;25.85;;;10.00;99.90;;;;;;6199564;23;20025;-93
2021/05/15 08:31:12;;;;;;;41.85;23.90;;;10.00;99.90;;;;;;6197228;23;20009;-94
2021/05/15 08:33:38;;;;;;;48.55;27.15;;;10.00;99.90;;;;;;6179246;23;20012;-93
2021/05/15 08:36:05;;;;;;;40.65;23.15;;;10.10;99.90;;;;;;6209382;23;19996;-93
2021/05/15 08:38:32;;;;;;;36.28;20.67;;;10.20;99.90;;;;;;6200551;23;20017;-91
2021/05/15 08:41:01;;;;;;;38.15;23.52;;;10.30;99.90;;;;;;6200555;23;20005;-93
2021/05/15 08:43:30;;;;;;;37.72;22.02;;;10.40;99.90;;;;;;6200999;23;20008;-93
2021/05/15 08:46:01;;;;;;;39.65;22.80;;;10.40;99.90;;;;;;6201343;23;20005;-92
2021/05/15 08:48:33;;;;;;;43.45;23.10;;;10.50;99.90;;;;;;6180173;23;19998;-91
2021/05/15 08:51:00;;;;;;;36.75;20.77;;;10.50;99.90;;;;;;6206030;23;20009;-92
2021/05/15 08:53:26;;;;;;;35.15;21.73;;;10.50;99.90;;;;;;6207828;23;19989;-93
2021/05/15 08:55:54;;;;;;;37.92;21.95;;;10.50;99.90;;;;;;6211608;23;20011;-94
2021/05/15 08:58:21;;;;;;;38.47;22.60;;;10.60;99.90;;;;;;6198569;23;20017;-90
2021/05/15 09:00:49;;;;;;;36.63;22.35;;;10.70;99.90;;;;;;6198041;23;20001;-90
2021/05/15 09:03:19;;;;;;;33.38;19.42;;;10.80;99.90;;;;;;6198527;23;20021;-90
2021/05/15 09:05:51;;;;;;;36.65;19.80;;;11.00;99.90;;;;;;6195864;23;20005;-93
2021/05/15 09:08:21;;;;;;;31.48;20.17;;;11.10;99.90;;;;;;6200300;23;20005;-93
2021/05/15 09:10:55;;;;;;;33.60;19.15;;;11.20;99.90;;;;;;6196249;23;20021;-92
2021/05/15 09:13:28;;;;;;;34.55;19.35;;;11.30;99.90;;;;;;6200403;23;20057;-94
2021/05/15 09:16:04;;;;;;;32.05;19.20;;;11.40;99.90;;;;;;6199057;23;20005;-93
2021/05/15 09:18:37;;;;;;;34.88;19.38;;;11.50;99.90;;;;;;6199042;23;20013;-93
2021/05/15 09:21:07;;;;;;;33.88;19.30;;;11.60;99.90;;;;;;6201534;23;20012;-94
2021/05/15 09:23:40;;;;;;;31.52;18.15;;;11.70;99.90;;;;;;6198134;23;20005;-93
2021/05/15 09:26:09;;;;;;;36.22;19.45;;;11.80;99.90;;;;;;6199582;23;19997;-93
2021/05/15 09:28:58;;;;;;;29.55;18.25;;;11.90;99.90;;;;;;6199243;23;20001;-92
2021/05/15 09:31:28;;;;;;;32.00;19.65;;;11.90;99.90;;;;;;6197591;23;20012;-93
2021/05/15 09:33:55;;;;;;;29.23;18.37;;;12.00;99.90;;;;;;6197798;23;20101;-92
2021/05/15 09:36:26;;;;;;;31.30;18.25;;;12.10;99.90;;;;;;6199104;23;19997;-93
2021/05/15 09:39:07;;;;;;;24.88;15.32;;;12.10;99.90;;;;;;6195911;23;20068;-92
2021/05/15 09:41:54;;;;;;;29.67;16.83;;;12.20;99.90;;;;;;6197468;23;20005;-93
2021/05/15 09:44:35;;;;;;;27.48;16.15;;;12.20;99.90;;;;;;6197835;23;20015;-93
2021/05/15 09:47:02;;;;;;;23.55;15.23;;;12.20;99.90;;;;;;6197852;23;20018;-93
2021/05/15 09:49:30;;;;;;;29.73;17.38;;;12.10;99.90;;;;;;6198932;23;20001;-93
2021/05/15 09:52:00;;;;;;;30.08;17.15;;;12.10;99.90;;;;;;6198446;23;20076;-92
2021/05/15 09:54:30;;;;;;;31.20;18.67;;;12.10;99.90;;;;;;6198330;23;20071;-92
2021/05/15 09:57:18;;;;;;;30.30;18.30;;;12.00;99.90;;;;;;6198541;23;20013;-92
2021/05/15 09:59:47;;;;;;;28.10;18.05;;;12.00;99.90;;;;;;6198214;23;20005;-92
2021/05/15 10:02:18;;;;;;;33.55;19.13;;;11.90;99.90;;;;;;6196375;23;20013;-93
2021/05/15 10:04:46;;;;;;;31.60;19.13;;;11.90;99.90;;;;;;6198478;23;20049;-92
2021/05/15 10:07:33;;;;;;;28.60;15.43;;;11.80;99.90;;;;;;6201730;23;20016;-93
2021/05/15 10:10:17;;;;;;;31.33;16.52;;;11.70;99.90;;;;;;6214284;23;20013;-93
2021/05/15 10:12:44;;;;;;;29.20;16.80;;;11.40;99.90;;;;;;6209978;23;20008;-92
2021/05/15 10:15:15;;;;;;;25.13;14.90;;;11.20;99.90;;;;;;6213116;23;20008;-93
2021/05/15 10:17:40;;;;;;;;;;;11.10;99.90;;;;;;6187551;23;20068;-92
2021/05/15 10:20:11;;;;;;;26.58;16.17;;;11.00;99.90;;;;;;6227779;23;19900;-91
2021/05/15 10:22:46;;;;;;;27.50;15.43;;;11.00;99.90;;;;;;6202645;23;20017;-93
2021/05/15 10:25:15;;;;;;;21.05;13.85;;;10.90;99.90;;;;;;6182518;23;20019;-93
2021/05/15 10:27:41;;;;;;;22.02;12.68;;;10.90;99.90;;;;;;6202390;23;20003;-93
2021/05/15 10:30:12;;;;;;;22.55;13.77;;;10.90;99.90;;;;;;6204128;23;20001;-93
2021/05/15 10:32:52;;;;;;;;;;;10.90;99.90;;;;;;6204282;23;20008;-94
2021/05/15 10:35:30;;;;;;;23.05;12.65;;;10.90;99.90;;;;;;6203731;23;19904;-95
2021/05/15 10:38:13;;;;;;;25.63;15.45;;;10.90;99.90;;;;;;6200796;23;20016;-94
2021/05/15 10:41:14;;;;;;;21.77;13.30;;;11.00;99.90;;;;;;6201211;23;20043;-93
2021/05/15 10:43:42;;;;;;;32.17;17.83;;;11.10;99.90;;;;;;6223013;23;20005;-93
2021/05/15 10:46:27;;;;;;;26.42;17.40;;;11.30;99.90;;;;;;6177421;23;20035;-94
2021/05/15 10:49:07;;;;;;;31.10;17.77;;;11.50;99.90;;;;;;6201797;23;20028;-93
2021/05/15 10:51:47;;;;;;;32.10;18.63;;;11.70;99.90;;;;;;6202368;23;20069;-93
2021/05/15 10:54:29;;;;;;;36.70;19.50;;;11.70;99.90;;;;;;6201465;23;20070;-93
2021/05/15 10:57:10;;;;;;;29.05;17.67;;;11.80;99.90;;;;;;6179764;23;20025;-93
2021/05/15 10:59:40;;;;;;;28.02;16.48;;;11.90;99.90;;;;;;6227275;23;20023;-94
2021/05/15 11:02:18;;;;;;;25.52;15.30;;;11.90;99.90;;;;;;6201838;23;20055;-94
2021/05/15 11:04:54;;;;;;;30.42;18.02;;;12.00;99.90;;;;;;6200910;23;20035;-94
2021/05/15 11:07:43;;;;;;;27.20;15.98;;;12.00;99.90;;;;;;6202748;23;20036;-94
2021/05/15 11:10:19;;;;;;;24.70;15.20;;;12.10;99.90;;;;;;6198722;23;20013;-94
2021/05/15 11:12:53;;;;;;;22.85;13.10;;;12.10;99.90;;;;;;6226359;23;20079;-94
2021/05/15 11:15:27;;;;;;;18.13;12.27;;;12.10;99.90;;;;;;6229893;23;20000;-94
2021/05/15 11:18:13;;;;;;;22.75;13.60;;;12.10;99.90;;;;;;6206056;23;20017;-94
2021/05/15 11:20:54;;;;;;;21.25;13.32;;;12.10;99.90;;;;;;6182252;23;20087;-94
2021/05/15 11:23:23;;;;;;;20.15;13.57;;;12.10;99.90;;;;;;6209982;23;19992;-93
2021/05/15 11:25:58;;;;;;;22.42;13.93;;;12.10;99.90;;;;;;6239619;23;20058;-95
2021/05/15 11:28:48;;;;;;;22.40;12.88;;;12.20;99.90;;;;;;6215787;23;20008;-93
2021/05/15 11:31:18;;;;;;;23.83;12.50;;;12.20;99.90;;;;;;6241582;23;20005;-92
2021/05/15 11:33:47;;;;;;;19.20;12.38;;;12.30;99.90;;;;;;6190875;23;20005;-93
2021/05/15 11:36:16;;;;;;;21.85;12.60;;;12.40;99.90;;;;;;6214099;23;19997;-93
2021/05/15 11:38:47;;;;;;;17.25;10.25;;;12.40;99.90;;;;;;6212174;23;20032;-92
2021/05/15 11:41:16;;;;;;;;;;;12.40;99.90;;;;;;6187765;23;20008;-93
2021/05/15 11:44:08;;;;;;;13.40;6.63;;;12.30;99.90;;;;;;6211900;23;19903;-94
2021/05/15 11:46:34;;;;;;;10.05;6.32;;;12.10;99.90;;;;;;6211615;23;20083;-92
2021/05/15 11:49:00;;;;;;;8.52;6.40;;;11.90;99.90;;;;;;6209833;23;20004;-92
2021/05/15 11:51:28;;;;;;;11.00;6.78;;;11.80;99.90;;;;;;6210012;23;20024;-94
2021/05/15 11:54:01;;;;;;;12.57;6.43;;;11.60;99.90;;;;;;6186823;23;20024;-92
2021/05/15 11:56:39;;;;;;;13.55;7.80;;;11.50;99.90;;;;;;6237072;23;19996;-94
2021/05/15 11:59:05;;;;;;;10.80;7.18;;;11.50;99.90;;;;;;6210875;23;20024;-93
2021/05/15 12:01:36;;;;;;;11.68;7.53;;;11.60;99.90;;;;;;6238339;23;20015;-93
2021/05/15 12:04:17;;;;;;;12.82;7.20;;;11.60;99.90;;;;;;6210820;23;20000;-93
2021/05/15 12:06:49;;;;;;;11.32;7.38;;;11.60;99.90;;;;;;6210444;23;20000;-95
2021/05/15 12:09:21;;;;;;;16.67;9.10;;;11.70;99.90;;;;;;6209531;23;20008;-92
2021/05/15 12:12:00;;;;;;;12.75;8.15;;;11.90;99.90;;;;;;6183522;23;20019;-93
2021/05/15 12:14:29;;;;;;;13.13;8.45;;;12.00;99.90;;;;;;6207636;23;20408;-93
2021/05/15 12:17:17;;;;;;;10.95;7.65;;;12.10;99.90;;;;;;6187436;23;20064;-92
2021/05/15 12:20:09;;;;;;;11.07;7.05;;;12.20;99.90;;;;;;6214487;23;20040;-92
2021/05/15 12:22:40;;;;;;;8.65;5.68;;;12.30;99.90;;;;;;6233807;23;20008;-92
2021/05/15 12:25:10;;;;;;;8.13;5.88;;;12.30;99.90;;;;;;6213058;23;19989;-92
2021/05/15 12:27:40;;;;;;;10.05;7.20;;;12.40;99.90;;;;;;6187115;23;20072;-92
2021/05/15 12:30:08;;;;;;;9.30;6.40;;;12.50;99.90;;;;;;6211542;23;20088;-94
2021/05/15 12:32:38;;;;;;;8.93;6.72;;;12.60;99.90;;;;;;6210298;23;20011;-94
2021/05/15 12:35:07;;;;;;;9.10;6.13;;;12.80;99.90;;;;;;6236740;23;20008;-94
2021/05/15 12:37:38;;;;;;;9.90;6.53;;;12.90;99.90;;;;;;6209222;23;20020;-93
2021/05/15 12:40:14;;;;;;;9.80;6.70;;;13.00;99.90;;;;;;6186107;23;20005;-93
2021/05/15 12:42:43;;;;;;;11.63;7.25;;;13.20;99.90;;;;;;6211112;23;20052;-95
2021/05/15 12:45:17;;;;;;;9.57;7.20;;;13.20;99.90;;;;;;6210958;23;20000;-93
2021/05/15 12:47:44;;;;;;;12.10;8.10;;;13.10;99.90;;;;;;6208319;23;20459;-93
2021/05/15 12:50:30;;;;;;;13.27;7.18;;;13.10;99.90;;;;;;6209109;23;20012;-92